CYBL

Campbell River  Airport

Campbell River, British Columbia, Canada

CYBL 230500Z 15002KT 15SM -RA FEW005 BKN080 OVC140 11/11 A2964 RMK SF1AC4AC3 LAST OBS/NEXT 231400 UTC SLP040 DENSITY ALT 400FT

Observed Flight Rules
Nov-23 @ 05:00 UTC (4 hours ago)
 
Visual Flight Rules
Wind Visibility Clouds Conditions
150° at 2 knots 15 miles
  • Few at 500' AGL
  • Broken at 8,000' AGL
  • Overcast at 14,000' AGL
  • Light Rain
Temperatures Readings
Current 11°C / 52°F
Dewpoint 11°C / 52°F
Humidity 100%
Altimeter 29.64" Hg
Pressure 1004 hPa
Elevation 106
Observed Flight Rules
Nov-23 @ 05:00 UTC
(4 hours ago)
 
VFR
Wind Visibility
150° at 2 knots 15 miles
Clouds
  • Few at 500' AGL
  • Broken at 8,000' AGL
  • Overcast at 14,000' AGL
Conditions
  • Light Rain
Temperature Dewpoint
11°C / 52°F 11°C / 52°F
Humidity Altimeter Pressure
100% 29.64" Hg 1004 hPa